sensor_id;sensor_type;location;lat;lon;timestamp;P1;durP1;ratioP1;P2;durP2;ratioP2
82722;SDS011;72450;42.008;21.356;2023-12-20T00:01:10;77.32;;;41.15;;
82722;SDS011;72450;42.008;21.356;2023-12-20T00:03:36;81.10;;;46.25;;
82722;SDS011;72450;42.008;21.356;2023-12-20T00:06:02;82.25;;;46.70;;
82722;SDS011;72450;42.008;21.356;2023-12-20T00:08:28;79.43;;;44.13;;
82722;SDS011;72450;42.008;21.356;2023-12-20T00:10:54;73.78;;;37.20;;
82722;SDS011;72450;42.008;21.356;2023-12-20T00:13:21;73.70;;;41.40;;
82722;SDS011;72450;42.008;21.356;2023-12-20T00:15:47;67.55;;;34.95;;
82722;SDS011;72450;42.008;21.356;2023-12-20T00:18:13;76.43;;;40.75;;
82722;SDS011;72450;42.008;21.356;2023-12-20T00:20:39;82.65;;;44.83;;
82722;SDS011;72450;42.008;21.356;2023-12-20T00:23:05;74.63;;;38.22;;
82722;SDS011;72450;42.008;21.356;2023-12-20T00:25:32;74.50;;;37.78;;
82722;SDS011;72450;42.008;21.356;2023-12-20T00:27:58;85.43;;;44.53;;
82722;SDS011;72450;42.008;21.356;2023-12-20T00:30:25;72.07;;;38.92;;
82722;SDS011;72450;42.008;21.356;2023-12-20T00:32:51;77.20;;;40.28;;
82722;SDS011;72450;42.008;21.356;2023-12-20T00:35:17;59.85;;;31.38;;
82722;SDS011;72450;42.008;21.356;2023-12-20T00:37:43;57.78;;;33.85;;
82722;SDS011;72450;42.008;21.356;2023-12-20T00:40:09;46.58;;;27.05;;
82722;SDS011;72450;42.008;21.356;2023-12-20T00:42:35;60.17;;;37.70;;
82722;SDS011;72450;42.008;21.356;2023-12-20T00:45:02;54.13;;;30.77;;
82722;SDS011;72450;42.008;21.356;2023-12-20T00:47:29;60.92;;;30.55;;
82722;SDS011;72450;42.008;21.356;2023-12-20T00:49:56;59.15;;;34.17;;
82722;SDS011;72450;42.008;21.356;2023-12-20T00:52:22;62.17;;;33.17;;
82722;SDS011;72450;42.008;21.356;2023-12-20T00:54:48;59.83;;;33.22;;
82722;SDS011;72450;42.008;21.356;2023-12-20T00:57:14;94.00;;;45.58;;
82722;SDS011;72450;42.008;21.356;2023-12-20T00:59:40;85.55;;;46.80;;
82722;SDS011;72450;42.008;21.356;2023-12-20T01:02:07;79.15;;;35.88;;
82722;SDS011;72450;42.008;21.356;2023-12-20T01:04:34;78.22;;;42.58;;
82722;SDS011;72450;42.008;21.356;2023-12-20T01:07:00;89.72;;;50.97;;
82722;SDS011;72450;42.008;21.356;2023-12-20T01:09:26;104.35;;;54.70;;
82722;SDS011;72450;42.008;21.356;2023-12-20T01:11:52;99.65;;;54.60;;
82722;SDS011;72450;42.008;21.356;2023-12-20T01:14:18;93.40;;;45.65;;
82722;SDS011;72450;42.008;21.356;2023-12-20T01:16:44;112.72;;;59.85;;
82722;SDS011;72450;42.008;21.356;2023-12-20T01:19:11;100.45;;;54.25;;
82722;SDS011;72450;42.008;21.356;2023-12-20T01:21:37;106.00;;;55.17;;
82722;SDS011;72450;42.008;21.356;2023-12-20T01:24:03;110.85;;;63.30;;
82722;SDS011;72450;42.008;21.356;2023-12-20T01:26:29;121.75;;;66.60;;
82722;SDS011;72450;42.008;21.356;2023-12-20T01:28:55;127.15;;;70.60;;
82722;SDS011;72450;42.008;21.356;2023-12-20T01:31:21;127.85;;;66.50;;
82722;SDS011;72450;42.008;21.356;2023-12-20T01:33:47;117.95;;;65.40;;
82722;SDS011;72450;42.008;21.356;2023-12-20T01:36:13;133.52;;;68.22;;
82722;SDS011;72450;42.008;21.356;2023-12-20T01:38:39;113.20;;;61.67;;
82722;SDS011;72450;42.008;21.356;2023-12-20T01:41:06;117.90;;;63.13;;
82722;SDS011;72450;42.008;21.356;2023-12-20T01:43:32;107.90;;;58.38;;
82722;SDS011;72450;42.008;21.356;2023-12-20T01:45:58;105.38;;;54.30;;
82722;SDS011;72450;42.008;21.356;2023-12-20T01:48:25;112.93;;;60.58;;
82722;SDS011;72450;42.008;21.356;2023-12-20T01:50:51;107.00;;;57.00;;
82722;SDS011;72450;42.008;21.356;2023-12-20T01:53:18;113.90;;;61.72;;
82722;SDS011;72450;42.008;21.356;2023-12-20T01:55:45;119.45;;;64.65;;
82722;SDS011;72450;42.008;21.356;2023-12-20T01:58:11;109.05;;;63.30;;
82722;SDS011;72450;42.008;21.356;2023-12-20T02:00:38;110.47;;;61.50;;
82722;SDS011;72450;42.008;21.356;2023-12-20T02:03:04;111.75;;;53.42;;
82722;SDS011;72450;42.008;21.356;2023-12-20T02:05:31;116.50;;;60.60;;
82722;SDS011;72450;42.008;21.356;2023-12-20T02:07:57;109.63;;;57.25;;
82722;SDS011;72450;42.008;21.356;2023-12-20T02:10:24;103.57;;;52.05;;
82722;SDS011;72450;42.008;21.356;2023-12-20T02:12:50;105.97;;;61.05;;
82722;SDS011;72450;42.008;21.356;2023-12-20T02:15:16;106.13;;;56.65;;
82722;SDS011;72450;42.008;21.356;2023-12-20T02:17:42;109.68;;;57.78;;
82722;SDS011;72450;42.008;21.356;2023-12-20T02:20:08;86.90;;;47.63;;
82722;SDS011;72450;42.008;21.356;2023-12-20T02:22:34;99.97;;;55.15;;
82722;SDS011;72450;42.008;21.356;2023-12-20T02:25:00;98.22;;;50.53;;
82722;SDS011;72450;42.008;21.356;2023-12-20T02:27:26;88.65;;;51.55;;
82722;SDS011;72450;42.008;21.356;2023-12-20T02:29:53;112.63;;;64.10;;
82722;SDS011;72450;42.008;21.356;2023-12-20T02:32:20;116.35;;;61.83;;
82722;SDS011;72450;42.008;21.356;2023-12-20T02:34:47;105.75;;;60.72;;
82722;SDS011;72450;42.008;21.356;2023-12-20T02:37:13;102.78;;;59.53;;
82722;SDS011;72450;42.008;21.356;2023-12-20T02:39:39;101.63;;;59.97;;
82722;SDS011;72450;42.008;21.356;2023-12-20T02:42:05;105.75;;;60.72;;
82722;SDS011;72450;42.008;21.356;2023-12-20T02:44:31;100.95;;;56.38;;
82722;SDS011;72450;42.008;21.356;2023-12-20T02:46:57;93.97;;;50.30;;
82722;SDS011;72450;42.008;21.356;2023-12-20T02:49:24;83.60;;;48.97;;
82722;SDS011;72450;42.008;21.356;2023-12-20T02:51:50;78.70;;;43.75;;
82722;SDS011;72450;42.008;21.356;2023-12-20T02:54:16;67.90;;;37.97;;
82722;SDS011;72450;42.008;21.356;2023-12-20T02:56:42;56.13;;;33.80;;
82722;SDS011;72450;42.008;21.356;2023-12-20T02:59:08;58.03;;;33.50;;
82722;SDS011;72450;42.008;21.356;2023-12-20T03:01:34;53.88;;;29.88;;
82722;SDS011;72450;42.008;21.356;2023-12-20T03:04:00;56.58;;;31.85;;
82722;SDS011;72450;42.008;21.356;2023-12-20T03:06:27;66.00;;;33.67;;
82722;SDS011;72450;42.008;21.356;2023-12-20T03:08:53;55.67;;;30.33;;
82722;SDS011;72450;42.008;21.356;2023-12-20T03:11:19;52.25;;;28.65;;
82722;SDS011;72450;42.008;21.356;2023-12-20T03:13:45;52.65;;;29.20;;
82722;SDS011;72450;42.008;21.356;2023-12-20T03:16:11;46.20;;;28.10;;
82722;SDS011;72450;42.008;21.356;2023-12-20T03:18:37;54.88;;;31.85;;
82722;SDS011;72450;42.008;21.356;2023-12-20T03:21:04;42.72;;;22.83;;
82722;SDS011;72450;42.008;21.356;2023-12-20T03:23:30;45.63;;;26.30;;
82722;SDS011;72450;42.008;21.356;2023-12-20T03:25:57;46.45;;;24.90;;
82722;SDS011;72450;42.008;21.356;2023-12-20T03:28:23;49.88;;;29.38;;
82722;SDS011;72450;42.008;21.356;2023-12-20T03:30:50;52.28;;;26.85;;
82722;SDS011;72450;42.008;21.356;2023-12-20T03:33:16;47.50;;;24.50;;
82722;SDS011;72450;42.008;21.356;2023-12-20T03:35:42;44.67;;;26.52;;
82722;SDS011;72450;42.008;21.356;2023-12-20T03:38:08;36.63;;;21.67;;
82722;SDS011;72450;42.008;21.356;2023-12-20T03:40:34;43.40;;;24.83;;
82722;SDS011;72450;42.008;21.356;2023-12-20T03:43:00;42.40;;;22.67;;
82722;SDS011;72450;42.008;21.356;2023-12-20T03:45:26;48.97;;;22.77;;
82722;SDS011;72450;42.008;21.356;2023-12-20T03:47:52;44.55;;;24.95;;
82722;SDS011;72450;42.008;21.356;2023-12-20T03:50:23;46.95;;;25.52;;
82722;SDS011;72450;42.008;21.356;2023-12-20T03:52:49;50.30;;;25.67;;
82722;SDS011;72450;42.008;21.356;2023-12-20T03:55:15;47.85;;;26.98;;
82722;SDS011;72450;42.008;21.356;2023-12-20T03:57:41;46.90;;;26.73;;
82722;SDS011;72450;42.008;21.356;2023-12-20T04:00:07;45.10;;;25.23;;
82722;SDS011;72450;42.008;21.356;2023-12-20T04:02:37;42.15;;;23.67;;
82722;SDS011;72450;42.008;21.356;2023-12-20T04:05:03;47.53;;;24.95;;
82722;SDS011;72450;42.008;21.356;2023-12-20T04:07:30;40.53;;;24.30;;
82722;SDS011;72450;42.008;21.356;2023-12-20T04:09:56;38.65;;;22.35;;
82722;SDS011;72450;42.008;21.356;2023-12-20T04:12:22;45.22;;;25.05;;
82722;SDS011;72450;42.008;21.356;2023-12-20T04:14:48;40.03;;;23.55;;
82722;SDS011;72450;42.008;21.356;2023-12-20T04:17:15;42.28;;;21.98;;
82722;SDS011;72450;42.008;21.356;2023-12-20T04:19:41;44.08;;;25.13;;
82722;SDS011;72450;42.008;21.356;2023-12-20T04:22:08;48.53;;;27.17;;
82722;SDS011;72450;42.008;21.356;2023-12-20T04:24:34;56.13;;;27.40;;
82722;SDS011;72450;42.008;21.356;2023-12-20T04:27:00;67.35;;;33.15;;
82722;SDS011;72450;42.008;21.356;2023-12-20T04:29:27;59.80;;;30.15;;
82722;SDS011;72450;42.008;21.356;2023-12-20T04:31:53;50.63;;;26.88;;
82722;SDS011;72450;42.008;21.356;2023-12-20T04:34:19;62.88;;;30.00;;
82722;SDS011;72450;42.008;21.356;2023-12-20T04:36:45;58.10;;;29.58;;
82722;SDS011;72450;42.008;21.356;2023-12-20T04:39:12;52.25;;;28.13;;
82722;SDS011;72450;42.008;21.356;2023-12-20T04:41:40;59.17;;;29.85;;
82722;SDS011;72450;42.008;21.356;2023-12-20T04:44:06;53.90;;;31.58;;
82722;SDS011;72450;42.008;21.356;2023-12-20T04:46:32;61.58;;;32.22;;
82722;SDS011;72450;42.008;21.356;2023-12-20T04:48:58;64.30;;;33.08;;
82722;SDS011;72450;42.008;21.356;2023-12-20T04:51:24;66.43;;;36.63;;
82722;SDS011;72450;42.008;21.356;2023-12-20T04:53:50;67.55;;;37.13;;
82722;SDS011;72450;42.008;21.356;2023-12-20T04:56:16;84.13;;;43.42;;
82722;SDS011;72450;42.008;21.356;2023-12-20T04:58:42;85.60;;;46.20;;
82722;SDS011;72450;42.008;21.356;2023-12-20T05:01:08;77.22;;;39.10;;
82722;SDS011;72450;42.008;21.356;2023-12-20T05:03:35;77.82;;;39.08;;
82722;SDS011;72450;42.008;21.356;2023-12-20T05:06:01;96.35;;;48.30;;
82722;SDS011;72450;42.008;21.356;2023-12-20T05:08:27;100.57;;;53.10;;
82722;SDS011;72450;42.008;21.356;2023-12-20T05:10:56;100.53;;;59.28;;
82722;SDS011;72450;42.008;21.356;2023-12-20T05:13:22;103.32;;;60.97;;
82722;SDS011;72450;42.008;21.356;2023-12-20T05:15:48;115.20;;;62.65;;
82722;SDS011;72450;42.008;21.356;2023-12-20T05:18:14;108.80;;;58.38;;
82722;SDS011;72450;42.008;21.356;2023-12-20T05:20:40;103.32;;;55.47;;
82722;SDS011;72450;42.008;21.356;2023-12-20T05:23:06;91.10;;;53.47;;
82722;SDS011;72450;42.008;21.356;2023-12-20T05:25:33;99.70;;;53.88;;
82722;SDS011;72450;42.008;21.356;2023-12-20T05:27:59;98.90;;;54.20;;
82722;SDS011;72450;42.008;21.356;2023-12-20T05:30:25;103.93;;;58.95;;
82722;SDS011;72450;42.008;21.356;2023-12-20T05:32:51;110.32;;;59.30;;
82722;SDS011;72450;42.008;21.356;2023-12-20T05:35:18;110.60;;;56.47;;
82722;SDS011;72450;42.008;21.356;2023-12-20T05:37:44;103.45;;;57.55;;
82722;SDS011;72450;42.008;21.356;2023-12-20T05:40:10;105.85;;;52.47;;
82722;SDS011;72450;42.008;21.356;2023-12-20T05:42:37;101.18;;;50.60;;
82722;SDS011;72450;42.008;21.356;2023-12-20T05:45:03;57.80;;;32.00;;
82722;SDS011;72450;42.008;21.356;2023-12-20T05:47:29;125.30;;;60.20;;
82722;SDS011;72450;42.008;21.356;2023-12-20T05:49:55;132.30;;;62.58;;
82722;SDS011;72450;42.008;21.356;2023-12-20T05:52:21;128.45;;;65.30;;
82722;SDS011;72450;42.008;21.356;2023-12-20T05:54:47;128.23;;;67.68;;
82722;SDS011;72450;42.008;21.356;2023-12-20T05:57:13;65.47;;;27.08;;
82722;SDS011;72450;42.008;21.356;2023-12-20T05:59:40;140.65;;;71.18;;
82722;SDS011;72450;42.008;21.356;2023-12-20T06:02:06;158.48;;;71.57;;
82722;SDS011;72450;42.008;21.356;2023-12-20T06:04:32;164.32;;;69.13;;
82722;SDS011;72450;42.008;21.356;2023-12-20T06:06:58;155.95;;;72.90;;
82722;SDS011;72450;42.008;21.356;2023-12-20T06:09:24;178.25;;;78.35;;
82722;SDS011;72450;42.008;21.356;2023-12-20T06:11:50;150.20;;;70.43;;
82722;SDS011;72450;42.008;21.356;2023-12-20T06:14:16;145.38;;;69.43;;
82722;SDS011;72450;42.008;21.356;2023-12-20T06:16:43;136.35;;;67.85;;
82722;SDS011;72450;42.008;21.356;2023-12-20T06:19:10;161.75;;;77.82;;
82722;SDS011;72450;42.008;21.356;2023-12-20T06:21:36;145.65;;;73.38;;
82722;SDS011;72450;42.008;21.356;2023-12-20T06:24:02;122.32;;;59.25;;
82722;SDS011;72450;42.008;21.356;2023-12-20T06:26:28;122.55;;;64.68;;
82722;SDS011;72450;42.008;21.356;2023-12-20T06:28:54;118.03;;;65.68;;
82722;SDS011;72450;42.008;21.356;2023-12-20T06:31:20;85.25;;;44.53;;
82722;SDS011;72450;42.008;21.356;2023-12-20T06:33:46;97.10;;;53.10;;
82722;SDS011;72450;42.008;21.356;2023-12-20T06:36:14;85.95;;;48.92;;
82722;SDS011;72450;42.008;21.356;2023-12-20T06:38:40;80.32;;;39.08;;
82722;SDS011;72450;42.008;21.356;2023-12-20T06:41:12;88.03;;;48.58;;
82722;SDS011;72450;42.008;21.356;2023-12-20T06:43:39;110.30;;;62.30;;
82722;SDS011;72450;42.008;21.356;2023-12-20T06:46:06;115.00;;;50.17;;
82722;SDS011;72450;42.008;21.356;2023-12-20T06:48:32;122.32;;;63.40;;
82722;SDS011;72450;42.008;21.356;2023-12-20T06:50:59;119.93;;;58.97;;
82722;SDS011;72450;42.008;21.356;2023-12-20T06:53:27;118.88;;;54.90;;
82722;SDS011;72450;42.008;21.356;2023-12-20T06:55:53;130.57;;;67.55;;
82722;SDS011;72450;42.008;21.356;2023-12-20T06:58:21;142.68;;;75.05;;
82722;SDS011;72450;42.008;21.356;2023-12-20T07:00:47;123.38;;;62.67;;
82722;SDS011;72450;42.008;21.356;2023-12-20T07:03:13;143.13;;;70.63;;
82722;SDS011;72450;42.008;21.356;2023-12-20T07:05:39;155.25;;;79.93;;
82722;SDS011;72450;42.008;21.356;2023-12-20T07:08:06;191.13;;;78.95;;
82722;SDS011;72450;42.008;21.356;2023-12-20T07:10:32;241.50;;;111.60;;
82722;SDS011;72450;42.008;21.356;2023-12-20T07:12:58;214.40;;;96.05;;
82722;SDS011;72450;42.008;21.356;2023-12-20T07:15:24;167.13;;;79.32;;
82722;SDS011;72450;42.008;21.356;2023-12-20T07:17:51;177.55;;;90.45;;
82722;SDS011;72450;42.008;21.356;2023-12-20T07:20:18;184.98;;;90.53;;
82722;SDS011;72450;42.008;21.356;2023-12-20T07:22:44;155.27;;;72.28;;
82722;SDS011;72450;42.008;21.356;2023-12-20T07:25:10;163.60;;;81.22;;
82722;SDS011;72450;42.008;21.356;2023-12-20T07:27:36;169.75;;;82.70;;
82722;SDS011;72450;42.008;21.356;2023-12-20T07:30:03;145.75;;;63.13;;
82722;SDS011;72450;42.008;21.356;2023-12-20T07:32:29;147.38;;;74.38;;
82722;SDS011;72450;42.008;21.356;2023-12-20T07:34:55;154.20;;;76.75;;
82722;SDS011;72450;42.008;21.356;2023-12-20T07:37:21;135.98;;;65.10;;
82722;SDS011;72450;42.008;21.356;2023-12-20T07:39:47;143.40;;;74.55;;
82722;SDS011;72450;42.008;21.356;2023-12-20T07:42:13;64.22;;;29.35;;
82722;SDS011;72450;42.008;21.356;2023-12-20T07:44:39;106.03;;;54.70;;
82722;SDS011;72450;42.008;21.356;2023-12-20T07:47:06;138.68;;;71.40;;
82722;SDS011;72450;42.008;21.356;2023-12-20T07:49:32;149.30;;;74.38;;
82722;SDS011;72450;42.008;21.356;2023-12-20T07:51:58;142.20;;;70.05;;
82722;SDS011;72450;42.008;21.356;2023-12-20T07:54:24;142.40;;;69.50;;
82722;SDS011;72450;42.008;21.356;2023-12-20T07:56:50;135.68;;;67.80;;
82722;SDS011;72450;42.008;21.356;2023-12-20T07:59:16;149.25;;;76.35;;
82722;SDS011;72450;42.008;21.356;2023-12-20T08:01:42;153.93;;;72.25;;
82722;SDS011;72450;42.008;21.356;2023-12-20T08:04:09;126.70;;;58.17;;
82722;SDS011;72450;42.008;21.356;2023-12-20T08:06:35;158.77;;;75.45;;
82722;SDS011;72450;42.008;21.356;2023-12-20T08:09:01;151.07;;;74.47;;
82722;SDS011;72450;42.008;21.356;2023-12-20T08:11:27;141.75;;;67.40;;
82722;SDS011;72450;42.008;21.356;2023-12-20T08:13:54;144.15;;;66.90;;
82722;SDS011;72450;42.008;21.356;2023-12-20T08:16:20;142.30;;;63.10;;
82722;SDS011;72450;42.008;21.356;2023-12-20T08:18:47;143.82;;;65.03;;
82722;SDS011;72450;42.008;21.356;2023-12-20T08:21:13;163.45;;;70.90;;
82722;SDS011;72450;42.008;21.356;2023-12-20T08:23:39;138.95;;;63.42;;
82722;SDS011;72450;42.008;21.356;2023-12-20T08:26:06;144.02;;;62.38;;
82722;SDS011;72450;42.008;21.356;2023-12-20T08:28:32;112.88;;;56.25;;
82722;SDS011;72450;42.008;21.356;2023-12-20T08:30:58;127.13;;;61.78;;
82722;SDS011;72450;42.008;21.356;2023-12-20T08:33:25;118.45;;;59.92;;
82722;SDS011;72450;42.008;21.356;2023-12-20T08:35:51;131.80;;;61.40;;
82722;SDS011;72450;42.008;21.356;2023-12-20T08:38:17;129.80;;;59.65;;
82722;SDS011;72450;42.008;21.356;2023-12-20T08:45:53;179.02;;;80.60;;
82722;SDS011;72450;42.008;21.356;2023-12-20T08:48:19;105.68;;;53.55;;
82722;SDS011;72450;42.008;21.356;2023-12-20T08:50:45;195.45;;;87.40;;
82722;SDS011;72450;42.008;21.356;2023-12-20T08:53:13;201.25;;;91.10;;
82722;SDS011;72450;42.008;21.356;2023-12-20T08:55:41;192.68;;;89.53;;
82722;SDS011;72450;42.008;21.356;2023-12-20T08:58:07;152.63;;;69.20;;
82722;SDS011;72450;42.008;21.356;2023-12-20T09:00:34;202.05;;;93.90;;
82722;SDS011;72450;42.008;21.356;2023-12-20T09:03:01;243.13;;;97.30;;
82722;SDS011;72450;42.008;21.356;2023-12-20T09:05:27;231.73;;;103.90;;
82722;SDS011;72450;42.008;21.356;2023-12-20T09:07:53;216.82;;;95.47;;
82722;SDS011;72450;42.008;21.356;2023-12-20T09:10:19;217.60;;;97.20;;
82722;SDS011;72450;42.008;21.356;2023-12-20T09:12:53;233.70;;;98.88;;
82722;SDS011;72450;42.008;21.356;2023-12-20T09:15:23;246.23;;;109.30;;
82722;SDS011;72450;42.008;21.356;2023-12-20T09:17:49;251.75;;;102.65;;
82722;SDS011;72450;42.008;21.356;2023-12-20T09:20:15;231.93;;;104.82;;
82722;SDS011;72450;42.008;21.356;2023-12-20T09:22:41;250.25;;;100.40;;
82722;SDS011;72450;42.008;21.356;2023-12-20T09:25:08;258.17;;;106.22;;
82722;SDS011;72450;42.008;21.356;2023-12-20T09:27:34;210.32;;;82.05;;
82722;SDS011;72450;42.008;21.356;2023-12-20T09:30:00;219.70;;;95.80;;
82722;SDS011;72450;42.008;21.356;2023-12-20T09:32:26;261.88;;;100.30;;
82722;SDS011;72450;42.008;21.356;2023-12-20T09:34:52;282.17;;;102.40;;
82722;SDS011;72450;42.008;21.356;2023-12-20T09:37:18;241.45;;;96.68;;
82722;SDS011;72450;42.008;21.356;2023-12-20T09:39:44;285.95;;;112.45;;
82722;SDS011;72450;42.008;21.356;2023-12-20T09:42:11;320.73;;;114.80;;
82722;SDS011;72450;42.008;21.356;2023-12-20T09:44:37;241.02;;;93.07;;
82722;SDS011;72450;42.008;21.356;2023-12-20T09:47:07;236.48;;;106.15;;
82722;SDS011;72450;42.008;21.356;2023-12-20T09:49:33;215.48;;;93.78;;
82722;SDS011;72450;42.008;21.356;2023-12-20T09:52:00;229.30;;;100.07;;
82722;SDS011;72450;42.008;21.356;2023-12-20T09:54:26;222.68;;;94.10;;
82722;SDS011;72450;42.008;21.356;2023-12-20T09:56:54;228.60;;;95.53;;
82722;SDS011;72450;42.008;21.356;2023-12-20T09:59:20;199.52;;;87.05;;
82722;SDS011;72450;42.008;21.356;2023-12-20T10:01:46;211.48;;;90.30;;
82722;SDS011;72450;42.008;21.356;2023-12-20T10:04:12;190.02;;;79.13;;
82722;SDS011;72450;42.008;21.356;2023-12-20T10:06:42;214.80;;;91.05;;
82722;SDS011;72450;42.008;21.356;2023-12-20T10:09:09;174.73;;;79.10;;
82722;SDS011;72450;42.008;21.356;2023-12-20T10:11:35;192.40;;;82.55;;
82722;SDS011;72450;42.008;21.356;2023-12-20T10:14:04;197.75;;;85.57;;
82722;SDS011;72450;42.008;21.356;2023-12-20T10:16:31;184.65;;;83.60;;
82722;SDS011;72450;42.008;21.356;2023-12-20T10:18:57;180.60;;;84.68;;
82722;SDS011;72450;42.008;21.356;2023-12-20T10:21:24;205.27;;;99.13;;
82722;SDS011;72450;42.008;21.356;2023-12-20T10:23:51;224.05;;;102.20;;
82722;SDS011;72450;42.008;21.356;2023-12-20T10:26:27;241.60;;;113.88;;
82722;SDS011;72450;42.008;21.356;2023-12-20T10:28:54;222.07;;;101.50;;
82722;SDS011;72450;42.008;21.356;2023-12-20T10:31:30;227.88;;;111.75;;
82722;SDS011;72450;42.008;21.356;2023-12-20T10:33:57;174.88;;;80.65;;
82722;SDS011;72450;42.008;21.356;2023-12-20T10:36:25;196.15;;;91.18;;
82722;SDS011;72450;42.008;21.356;2023-12-20T10:38:52;202.05;;;92.95;;
82722;SDS011;72450;42.008;21.356;2023-12-20T10:41:19;206.95;;;85.85;;
82722;SDS011;72450;42.008;21.356;2023-12-20T10:43:49;184.02;;;80.20;;
82722;SDS011;72450;42.008;21.356;2023-12-20T10:46:15;193.70;;;88.20;;
82722;SDS011;72450;42.008;21.356;2023-12-20T10:48:41;190.43;;;85.38;;
82722;SDS011;72450;42.008;21.356;2023-12-20T10:51:09;188.85;;;86.95;;
82722;SDS011;72450;42.008;21.356;2023-12-20T10:53:36;213.55;;;93.07;;
82722;SDS011;72450;42.008;21.356;2023-12-20T10:56:02;207.05;;;89.50;;
82722;SDS011;72450;42.008;21.356;2023-12-20T10:58:28;208.60;;;89.63;;
82722;SDS011;72450;42.008;21.356;2023-12-20T11:00:58;129.23;;;58.65;;
82722;SDS011;72450;42.008;21.356;2023-12-20T11:03:26;203.00;;;92.68;;
82722;SDS011;72450;42.008;21.356;2023-12-20T11:06:56;199.18;;;91.68;;
82722;SDS011;72450;42.008;21.356;2023-12-20T11:08:51;186.38;;;95.90;;
82722;SDS011;72450;42.008;21.356;2023-12-20T11:11:25;191.05;;;94.28;;
82722;SDS011;72450;42.008;21.356;2023-12-20T11:13:54;200.45;;;96.43;;
82722;SDS011;72450;42.008;21.356;2023-12-20T11:16:21;170.75;;;81.50;;
82722;SDS011;72450;42.008;21.356;2023-12-20T11:18:47;191.20;;;91.47;;
82722;SDS011;72450;42.008;21.356;2023-12-20T11:21:16;207.27;;;98.47;;
82722;SDS011;72450;42.008;21.356;2023-12-20T11:23:42;199.55;;;99.93;;
82722;SDS011;72450;42.008;21.356;2023-12-20T11:26:08;192.30;;;92.82;;
82722;SDS011;72450;42.008;21.356;2023-12-20T11:28:34;166.05;;;81.38;;
82722;SDS011;72450;42.008;21.356;2023-12-20T11:31:01;185.60;;;89.25;;
82722;SDS011;72450;42.008;21.356;2023-12-20T11:33:31;184.25;;;87.75;;
82722;SDS011;72450;42.008;21.356;2023-12-20T11:35:58;169.98;;;80.53;;
82722;SDS011;72450;42.008;21.356;2023-12-20T11:38:25;170.68;;;81.97;;
82722;SDS011;72450;42.008;21.356;2023-12-20T11:40:53;175.40;;;87.50;;
82722;SDS011;72450;42.008;21.356;2023-12-20T11:43:38;178.13;;;87.32;;
82722;SDS011;72450;42.008;21.356;2023-12-20T11:46:08;166.95;;;83.57;;
82722;SDS011;72450;42.008;21.356;2023-12-20T11:48:35;174.05;;;83.97;;
82722;SDS011;72450;42.008;21.356;2023-12-20T11:51:01;168.60;;;81.60;;
82722;SDS011;72450;42.008;21.356;2023-12-20T11:53:29;165.10;;;83.18;;
82722;SDS011;72450;42.008;21.356;2023-12-20T11:55:57;170.85;;;84.38;;
82722;SDS011;72450;42.008;21.356;2023-12-20T11:58:23;183.85;;;85.63;;
82722;SDS011;72450;42.008;21.356;2023-12-20T12:00:49;169.77;;;86.88;;
82722;SDS011;72450;42.008;21.356;2023-12-20T12:05:43;145.15;;;68.78;;
82722;SDS011;72450;42.008;21.356;2023-12-20T12:08:09;173.07;;;86.57;;
82722;SDS011;72450;42.008;21.356;2023-12-20T12:10:35;151.48;;;82.90;;
82722;SDS011;72450;42.008;21.356;2023-12-20T12:13:01;140.40;;;69.90;;
82722;SDS011;72450;42.008;21.356;2023-12-20T12:15:27;141.40;;;69.32;;
82722;SDS011;72450;42.008;21.356;2023-12-20T12:17:56;141.23;;;74.53;;
82722;SDS011;72450;42.008;21.356;2023-12-20T12:20:24;131.88;;;65.28;;
82722;SDS011;72450;42.008;21.356;2023-12-20T12:23:05;140.05;;;74.90;;
82722;SDS011;72450;42.008;21.356;2023-12-20T12:25:32;144.02;;;74.38;;
82722;SDS011;72450;42.008;21.356;2023-12-20T12:27:58;134.75;;;70.72;;
82722;SDS011;72450;42.008;21.356;2023-12-20T12:30:25;139.27;;;70.93;;
82722;SDS011;72450;42.008;21.356;2023-12-20T12:32:51;125.60;;;66.18;;
82722;SDS011;72450;42.008;21.356;2023-12-20T12:35:18;126.78;;;65.63;;
82722;SDS011;72450;42.008;21.356;2023-12-20T12:37:44;126.45;;;65.03;;
82722;SDS011;72450;42.008;21.356;2023-12-20T12:40:11;138.32;;;70.85;;
82722;SDS011;72450;42.008;21.356;2023-12-20T12:42:38;128.15;;;67.82;;
82722;SDS011;72450;42.008;21.356;2023-12-20T12:45:05;109.28;;;61.50;;
82722;SDS011;72450;42.008;21.356;2023-12-20T12:47:32;129.13;;;65.07;;
82722;SDS011;72450;42.008;21.356;2023-12-20T12:49:58;122.80;;;65.60;;
82722;SDS011;72450;42.008;21.356;2023-12-20T12:52:24;118.13;;;65.20;;
82722;SDS011;72450;42.008;21.356;2023-12-20T12:54:51;125.78;;;66.88;;
82722;SDS011;72450;42.008;21.356;2023-12-20T12:57:17;122.13;;;68.57;;
82722;SDS011;72450;42.008;21.356;2023-12-20T12:59:44;70.55;;;38.55;;
82722;SDS011;72450;42.008;21.356;2023-12-20T13:02:14;93.50;;;53.35;;
82722;SDS011;72450;42.008;21.356;2023-12-20T13:04:40;106.03;;;56.85;;
82722;SDS011;72450;42.008;21.356;2023-12-20T13:07:06;96.43;;;50.58;;
82722;SDS011;72450;42.008;21.356;2023-12-20T13:09:35;101.82;;;52.33;;
82722;SDS011;72450;42.008;21.356;2023-12-20T13:12:01;112.43;;;59.90;;
82722;SDS011;72450;42.008;21.356;2023-12-20T13:14:29;109.13;;;60.20;;
82722;SDS011;72450;42.008;21.356;2023-12-20T13:16:55;122.95;;;64.38;;
82722;SDS011;72450;42.008;21.356;2023-12-20T13:19:21;112.93;;;61.13;;
82722;SDS011;72450;42.008;21.356;2023-12-20T13:21:47;102.70;;;58.90;;
82722;SDS011;72450;42.008;21.356;2023-12-20T13:24:13;105.50;;;57.65;;
82722;SDS011;72450;42.008;21.356;2023-12-20T13:26:39;105.93;;;58.25;;
82722;SDS011;72450;42.008;21.356;2023-12-20T13:29:06;92.88;;;52.45;;
82722;SDS011;72450;42.008;21.356;2023-12-20T13:31:32;105.18;;;54.13;;
82722;SDS011;72450;42.008;21.356;2023-12-20T13:33:58;112.60;;;59.65;;
82722;SDS011;72450;42.008;21.356;2023-12-20T13:36:25;117.57;;;64.25;;
82722;SDS011;72450;42.008;21.356;2023-12-20T13:38:51;113.03;;;64.68;;
82722;SDS011;72450;42.008;21.356;2023-12-20T13:41:18;119.40;;;64.00;;
82722;SDS011;72450;42.008;21.356;2023-12-20T13:43:44;113.95;;;60.10;;
82722;SDS011;72450;42.008;21.356;2023-12-20T13:46:10;121.90;;;63.50;;
82722;SDS011;72450;42.008;21.356;2023-12-20T13:48:36;114.60;;;59.75;;
82722;SDS011;72450;42.008;21.356;2023-12-20T13:51:03;118.53;;;62.22;;
82722;SDS011;72450;42.008;21.356;2023-12-20T13:53:29;126.18;;;66.00;;
82722;SDS011;72450;42.008;21.356;2023-12-20T13:55:55;123.60;;;65.18;;
82722;SDS011;72450;42.008;21.356;2023-12-20T14:00:48;122.20;;;67.25;;
82722;SDS011;72450;42.008;21.356;2023-12-20T14:03:14;115.15;;;62.28;;
82722;SDS011;72450;42.008;21.356;2023-12-20T14:05:41;117.80;;;61.95;;